Time;durP1;ratioP1;P1;durP2;ratioP2;P2;SDS_P1;SDS_P2;PMS_P1;PMS_P2;Temp;Humidity;BMP_temperature;BMP_pressure;BME280_temperature;BME280_humidity;BME280_pressure;Samples;Min_cycle;Max_cycle;Signal;HPM_P1;HPM_P2
2022/02/04 13:19:41;;;;;;;24.23;14.68;;;;;;;7.18;100.00;99819.20;3512542;80;98825;-89
2022/02/04 13:24:42;;;;;;;24.13;13.60;;;;;;;7.14;100.00;99807.44;3517924;81;98672;-89
2022/02/04 13:29:42;;;;;;;24.87;15.40;;;;;;;7.14;100.00;99811.55;3484260;82;99054;-89
2022/02/04 13:34:43;;;;;;;22.60;14.07;;;;;;;7.16;100.00;99797.70;3517485;81;98049;-90
2022/02/04 13:39:59;;;;;;;24.00;14.53;;;;;;;7.17;100.00;99797.11;3500865;81;98898;-90
2022/02/04 13:44:58;;;;;;;23.18;14.47;;;;;;;7.18;100.00;99803.59;3557940;81;99453;-88
2022/02/04 13:50:26;;;;;;;23.00;14.07;;;;;;;7.18;100.00;99797.31;3551045;80;98513;-90
2022/02/04 14:00:51;;;;;;;26.68;13.85;;;;;;;7.15;100.00;99790.63;3573288;78;98629;-87
2022/02/04 14:05:59;;;;;;;24.50;13.03;;;;;;;7.11;100.00;99785.70;3518305;81;98687;-88
2022/02/04 14:10:57;;;;;;;22.87;13.75;;;;;;;7.08;100.00;99789.17;3507432;82;99146;-89
2022/02/04 14:16:00;;;;;;;25.13;13.93;;;;;;;7.03;100.00;99783.23;3552112;80;99279;-87
2022/02/04 14:21:06;;;;;;;25.45;14.20;;;;;;;7.00;100.00;99786.13;3564791;80;99318;-91
2022/02/04 14:26:19;;;;;;;23.27;12.85;;;;;;;6.95;100.00;99781.54;3580615;81;32315;-90
2022/02/04 14:31:26;;;;;;;20.92;12.47;;;;;;;6.95;100.00;99774.14;3570227;80;98927;-90
2022/02/04 14:36:44;;;;;;;22.17;12.30;;;;;;;6.94;100.00;99773.13;3488970;80;98772;-90
2022/02/04 14:52:25;;;;;;;27.17;15.03;;;;;;;6.90;100.00;99769.55;3581294;80;98817;-88
2022/02/04 15:02:50;;;;;;;27.23;13.83;;;;;;;6.85;100.00;99759.72;3510651;82;98800;-92
2022/02/04 15:07:52;;;;;;;22.22;12.58;;;;;;;6.82;100.00;99756.94;3562196;81;98868;-92
2022/02/04 15:12:52;;;;;;;23.22;12.33;;;;;;;6.78;100.00;99758.25;3578872;81;99016;-90
2022/02/04 15:17:54;;;;;;;23.80;12.98;;;;;;;6.75;100.00;99757.61;3509677;82;99371;-87
2022/02/04 15:22:58;;;;;;;28.55;12.78;;;;;;;6.72;100.00;99741.15;3557346;80;98809;-92
2022/02/04 15:33:15;;;;;;;21.67;12.23;;;;;;;6.66;100.00;99730.31;3494250;82;98874;-87
2022/02/04 15:38:16;;;;;;;29.33;14.90;;;;;;;6.64;100.00;99724.41;3566612;79;98892;-88
2022/02/04 15:43:17;;;;;;;26.90;15.67;;;;;;;6.59;100.00;99715.95;3523964;81;98448;-88
2022/02/04 15:49:04;;;;;;;28.17;14.37;;;;;;;6.42;100.00;99680.94;3528689;81;99036;-89
2022/02/04 16:04:21;;;;;;;30.80;15.87;;;;;;;6.48;100.00;99692.33;3500489;81;99189;-89
2022/02/04 16:09:04;;;;;;;26.95;15.53;;;;;;;6.46;100.00;99688.63;3540275;80;98771;-89
2022/02/04 16:14:13;;;;;;;35.90;17.13;;;;;;;6.44;100.00;99698.34;3537210;81;35503;-87
2022/02/04 16:19:27;;;;;;;28.15;15.98;;;;;;;6.42;100.00;99691.06;3541573;80;99125;-88
2022/02/04 16:29:40;;;;;;;32.40;17.10;;;;;;;6.37;100.00;99669.52;3538359;79;98857;-89
2022/02/04 16:34:42;;;;;;;29.87;16.23;;;;;;;6.34;100.00;99670.27;3524285;80;98853;-91
2022/02/04 16:39:46;;;;;;;26.33;13.97;;;;;;;6.31;100.00;99671.78;3554992;80;99187;-90
2022/02/04 16:44:46;;;;;;;25.87;13.37;;;;;;;6.30;100.00;99671.58;3541913;80;99184;-87
2022/02/04 16:49:48;;;;;;;26.37;14.03;;;;;;;6.29;100.00;99665.11;3545086;81;98626;-88
2022/02/04 16:54:49;;;;;;;25.73;13.80;;;;;;;6.28;100.00;99658.84;3544415;78;98773;-87
2022/02/04 16:59:53;;;;;;;29.40;14.80;;;;;;;6.27;100.00;99653.17;3539539;80;99073;-90
2022/02/04 17:04:54;;;;;;;30.17;15.30;;;;;;;6.29;100.00;99636.42;3571488;80;98890;-88
2022/02/04 17:09:55;;;;;;;28.40;15.83;;;;;;;6.28;100.00;99628.79;3571161;81;99129;-90
2022/02/04 17:14:57;;;;;;;24.10;13.27;;;;;;;6.27;100.00;99632.68;3465249;81;98882;-92
2022/02/04 17:20:06;;;;;;;23.47;12.03;;;;;;;6.27;100.00;99608.69;3570223;81;98641;-90
2022/02/04 17:25:12;;;;;;;24.10;11.00;;;;;;;6.25;100.00;99609.05;3584810;81;98974;-87
2022/02/04 17:30:14;;;;;;;19.85;10.25;;;;;;;6.26;100.00;99609.81;3547798;81;99063;-89
2022/02/04 17:35:17;;;;;;;20.13;10.17;;;;;;;6.25;100.00;99616.45;3506676;81;99210;-90
2022/02/04 17:40:19;;;;;;;18.87;9.10;;;;;;;6.24;100.00;99611.58;3492422;81;99134;-92
2022/02/04 17:45:22;;;;;;;19.82;11.00;;;;;;;6.24;100.00;99613.50;3541844;80;98781;-91
2022/02/04 17:50:30;;;;;;;19.37;10.53;;;;;;;6.24;100.00;99599.84;3525845;81;98975;-88
2022/02/04 17:55:30;;;;;;;21.93;11.20;;;;;;;6.18;100.00;99587.66;3524195;81;27878;-91
2022/02/04 18:11:00;;;;;;;20.60;11.40;;;;;;;6.20;100.00;99582.04;3531773;81;99182;-95
2022/02/04 18:16:03;;;;;;;22.15;11.12;;;;;;;6.19;100.00;99579.67;3536864;81;99264;-93
2022/02/04 18:21:06;;;;;;;21.70;11.30;;;;;;;6.19;100.00;99575.57;3535162;81;99238;-89
2022/02/04 18:26:08;;;;;;;23.37;11.27;;;;;;;6.19;100.00;99571.47;3526525;81;26408;-92
2022/02/04 18:31:10;;;;;;;19.37;9.50;;;;;;;6.17;100.00;99569.10;3601206;80;98961;-93
2022/02/04 18:36:11;;;;;;;21.73;10.60;;;;;;;6.18;100.00;99567.17;3568636;81;98834;-90
2022/02/04 18:51:55;;;;;;;24.80;11.22;;;;;;;6.14;100.00;99552.09;3558969;79;97966;-88
2022/02/04 19:01:49;;;;;;;23.87;10.77;;;;;;;6.12;100.00;99549.53;3564682;81;34851;-91
2022/02/04 19:06:58;;;;;;;21.40;10.60;;;;;;;6.14;100.00;99545.84;3543676;80;99093;-87
2022/02/04 19:12:01;;;;;;;21.53;10.50;;;;;;;6.13;100.00;99540.17;3550231;81;98956;-87
2022/02/04 19:17:08;;;;;;;23.10;10.73;;;;;;;6.13;100.00;99536.07;3548014;81;99221;-86
2022/02/04 19:22:15;;;;;;;25.02;12.03;;;;;;;6.12;100.00;99524.94;3503399;81;99228;-87
2022/02/04 19:27:03;;;;;;;20.17;9.93;;;;;;;6.12;100.00;99522.98;3499703;79;99189;-91
2022/02/04 19:32:05;;;;;;;20.60;10.10;;;;;;;6.12;100.00;99522.20;3619242;79;26055;-92
2022/02/04 19:37:06;;;;;;;19.48;8.70;;;;;;;6.11;100.00;99517.31;3615033;78;98848;-89
2022/02/04 19:42:50;;;;;;;18.93;8.83;;;;;;;6.13;100.00;99517.75;3626905;79;98885;-93
2022/02/04 19:47:16;;;;;;;19.87;8.85;;;;;;;6.15;100.00;99505.86;3622555;79;98949;-93
2022/02/04 19:52:31;;;;;;;16.63;8.50;;;;;;;6.16;100.00;99499.84;3633565;79;99252;-93
2022/02/04 20:29:06;;;;;;;12.13;5.67;;;;;;;6.20;98.76;99453.64;3608077;79;98987;-91
2022/02/04 20:34:07;;;;;;;11.85;5.97;;;;;;;6.23;98.63;99448.78;3633474;78;98999;-87
2022/02/04 20:39:10;;;;;;;12.97;4.83;;;;;;;6.25;98.32;99442.95;3617476;78;100474;-90
2022/02/04 20:44:13;;;;;;;14.00;5.97;;;;;;;6.23;98.10;99422.83;3628736;79;29023;-91
2022/02/04 20:49:14;;;;;;;15.30;6.83;;;;;;;6.24;98.24;99416.23;3604329;79;98860;-91
2022/02/04 20:54:15;;;;;;;13.13;5.87;;;;;;;6.25;98.17;99408.80;3634254;79;98338;-89
2022/02/04 20:59:16;;;;;;;12.60;5.80;;;;;;;6.25;97.61;99406.08;3626580;79;98444;-89
2022/02/04 21:04:20;;;;;;;12.67;5.67;;;;;;;6.26;97.40;99392.61;3632523;79;98714;-91
2022/02/04 21:19:51;;;;;;;12.88;5.12;;;;;;;6.29;97.29;99370.02;3626922;79;98740;-90
2022/02/04 21:24:53;;;;;;;10.32;4.37;;;;;;;6.29;96.69;99370.02;3658227;78;98765;-93
2022/02/04 21:29:57;;;;;;;11.48;4.40;;;;;;;6.29;96.68;99363.20;3629220;79;98875;-89
2022/02/04 21:40:20;;;;;;;10.45;4.28;;;;;;;6.32;95.69;99363.83;3634945;79;98767;-94
2022/02/04 21:45:21;;;;;;;11.60;4.42;;;;;;;6.33;95.84;99362.06;3642367;79;99064;-96
2022/02/04 21:50:24;;;;;;;9.23;4.17;;;;;;;6.34;95.26;99359.53;3643202;79;98247;-91
2022/02/04 21:55:26;;;;;;;10.53;4.12;;;;;;;6.36;95.30;99352.33;3645564;79;97943;-95
2022/02/04 22:00:28;;;;;;;11.20;4.28;;;;;;;6.36;95.38;99340.03;3638480;78;98901;-87
2022/02/04 22:05:29;;;;;;;11.37;4.70;;;;;;;6.37;94.89;99326.00;3635585;79;97558;-91
2022/02/04 22:10:59;;;;;;;10.37;4.07;;;;;;;6.38;94.81;99327.57;3646478;79;99183;-91
2022/02/04 22:26:15;;;;;;;13.13;5.00;;;;;;;6.39;94.28;99317.44;3656939;79;29767;-88
2022/02/04 22:31:21;;;;;;;12.70;5.20;;;;;;;6.35;94.55;99316.05;3644285;79;98613;-91
2022/02/04 22:36:55;;;;;;;12.25;4.62;;;;;;;6.36;94.02;99315.44;3647673;79;98778;-91
2022/02/04 22:52:20;;;;;;;11.25;4.92;;;;;;;6.36;94.32;99284.02;3651816;79;98332;-89
2022/02/04 22:57:21;;;;;;;12.80;4.78;;;;;;;6.36;94.38;99272.52;3647426;79;98556;-93
2022/02/04 23:02:22;;;;;;;11.30;4.33;;;;;;;6.36;94.02;99260.80;3653020;79;26246;-90
2022/02/04 23:07:25;;;;;;;8.90;4.22;;;;;;;6.34;94.32;99244.00;3646684;79;98625;-95
2022/02/04 23:12:26;;;;;;;9.35;3.60;;;;;;;6.34;94.28;99248.11;3653003;79;98481;-90
2022/02/04 23:17:40;;;;;;;9.75;3.92;;;;;;;6.34;93.73;99244.77;3636138;79;98632;-94
2022/02/04 23:22:36;;;;;;;11.13;3.67;;;;;;;6.38;93.51;99248.92;3547186;81;98365;-90
2022/02/04 23:27:42;;;;;;;7.58;3.05;;;;;;;6.38;93.43;99236.03;3617924;79;98743;-93
2022/02/04 23:32:59;;;;;;;7.53;3.50;;;;;;;6.40;94.72;99250.69;3630879;79;98256;-92
2022/02/04 23:53:46;;;;;;;7.90;3.17;;;;;;;5.99;99.81;99233.53;3631495;78;98288;-90
2022/02/04 23:59:01;;;;;;;7.50;3.10;;;;;;;5.90;100.00;99216.66;3621801;78;98311;-89
